sensor_id;sensor_type;location;lat;lon;timestamp;temperature;humidity
24744;DHT22;12844;52.110;5.548;2023-03-20T00:00:49;17.20;53.30
24744;DHT22;12844;52.110;5.548;2023-03-20T00:03:15;17.20;53.30
24744;DHT22;12844;52.110;5.548;2023-03-20T00:05:41;17.20;53.30
24744;DHT22;12844;52.110;5.548;2023-03-20T00:08:07;17.20;53.30
24744;DHT22;12844;52.110;5.548;2023-03-20T00:10:41;17.20;53.50
24744;DHT22;12844;52.110;5.548;2023-03-20T00:13:13;17.20;53.30
24744;DHT22;12844;52.110;5.548;2023-03-20T00:15:42;17.20;53.30
24744;DHT22;12844;52.110;5.548;2023-03-20T00:18:19;17.20;53.30
24744;DHT22;12844;52.110;5.548;2023-03-20T00:20:48;17.20;53.30
24744;DHT22;12844;52.110;5.548;2023-03-20T00:23:14;17.20;53.30
24744;DHT22;12844;52.110;5.548;2023-03-20T00:25:42;17.20;53.30
24744;DHT22;12844;52.110;5.548;2023-03-20T00:38:29;17.20;53.20
24744;DHT22;12844;52.110;5.548;2023-03-20T00:40:55;17.20;53.20
24744;DHT22;12844;52.110;5.548;2023-03-20T00:43:20;17.20;53.10
24744;DHT22;12844;52.110;5.548;2023-03-20T00:45:46;17.20;53.20
24744;DHT22;12844;52.110;5.548;2023-03-20T00:48:15;17.20;53.20
24744;DHT22;12844;52.110;5.548;2023-03-20T00:50:41;17.20;53.20
24744;DHT22;12844;52.110;5.548;2023-03-20T00:53:10;17.20;53.20
24744;DHT22;12844;52.110;5.548;2023-03-20T00:55:36;17.20;53.20
24744;DHT22;12844;52.110;5.548;2023-03-20T00:58:03;17.20;53.20
24744;DHT22;12844;52.110;5.548;2023-03-20T01:00:36;17.20;53.20
24744;DHT22;12844;52.110;5.548;2023-03-20T01:03:19;17.20;53.20
24744;DHT22;12844;52.110;5.548;2023-03-20T01:05:45;17.20;53.10
24744;DHT22;12844;52.110;5.548;2023-03-20T01:08:22;17.10;53.20
24744;DHT22;12844;52.110;5.548;2023-03-20T01:10:50;17.20;53.20
24744;DHT22;12844;52.110;5.548;2023-03-20T01:13:24;17.10;53.20
24744;DHT22;12844;52.110;5.548;2023-03-20T01:15:51;17.10;53.20
24744;DHT22;12844;52.110;5.548;2023-03-20T01:18:19;17.10;53.20
24744;DHT22;12844;52.110;5.548;2023-03-20T01:20:45;17.10;53.20
24744;DHT22;12844;52.110;5.548;2023-03-20T01:23:12;17.10;53.20
24744;DHT22;12844;52.110;5.548;2023-03-20T01:25:38;17.20;53.20
24744;DHT22;12844;52.110;5.548;2023-03-20T01:28:19;17.10;53.10
24744;DHT22;12844;52.110;5.548;2023-03-20T01:30:45;17.10;53.10
24744;DHT22;12844;52.110;5.548;2023-03-20T01:33:16;17.10;53.10
24744;DHT22;12844;52.110;5.548;2023-03-20T01:35:42;17.10;53.10
24744;DHT22;12844;52.110;5.548;2023-03-20T01:38:11;17.10;53.20
24744;DHT22;12844;52.110;5.548;2023-03-20T01:40:46;17.10;53.20
24744;DHT22;12844;52.110;5.548;2023-03-20T01:43:16;17.10;53.20
24744;DHT22;12844;52.110;5.548;2023-03-20T01:51:25;17.10;53.20
24744;DHT22;12844;52.110;5.548;2023-03-20T01:54:13;17.10;53.20
24744;DHT22;12844;52.110;5.548;2023-03-20T01:56:47;17.10;53.20
24744;DHT22;12844;52.110;5.548;2023-03-20T01:59:21;17.10;53.20
24744;DHT22;12844;52.110;5.548;2023-03-20T02:01:48;17.10;53.20
24744;DHT22;12844;52.110;5.548;2023-03-20T02:04:14;17.10;53.20
24744;DHT22;12844;52.110;5.548;2023-03-20T02:06:41;17.10;53.20
24744;DHT22;12844;52.110;5.548;2023-03-20T02:09:09;17.10;53.20
24744;DHT22;12844;52.110;5.548;2023-03-20T02:11:36;17.10;53.10
24744;DHT22;12844;52.110;5.548;2023-03-20T02:14:03;17.10;53.10
24744;DHT22;12844;52.110;5.548;2023-03-20T02:16:29;17.10;53.10
24744;DHT22;12844;52.110;5.548;2023-03-20T02:18:55;17.10;53.20
24744;DHT22;12844;52.110;5.548;2023-03-20T02:34:44;17.10;53.10
24744;DHT22;12844;52.110;5.548;2023-03-20T02:49:08;17.00;53.20
24744;DHT22;12844;52.110;5.548;2023-03-20T02:51:56;17.00;53.10
24744;DHT22;12844;52.110;5.548;2023-03-20T02:57:16;17.00;53.20
24744;DHT22;12844;52.110;5.548;2023-03-20T02:59:55;17.00;53.20
24744;DHT22;12844;52.110;5.548;2023-03-20T03:02:38;17.00;53.10
24744;DHT22;12844;52.110;5.548;2023-03-20T03:05:12;17.00;53.10
24744;DHT22;12844;52.110;5.548;2023-03-20T03:07:41;17.00;53.10
24744;DHT22;12844;52.110;5.548;2023-03-20T03:10:20;17.00;53.10
24744;DHT22;12844;52.110;5.548;2023-03-20T03:12:48;17.00;53.10
24744;DHT22;12844;52.110;5.548;2023-03-20T03:15:20;17.00;53.00
24744;DHT22;12844;52.110;5.548;2023-03-20T03:17:48;17.00;53.00
24744;DHT22;12844;52.110;5.548;2023-03-20T03:22:44;17.00;53.00
24744;DHT22;12844;52.110;5.548;2023-03-20T03:25:11;17.00;53.00
24744;DHT22;12844;52.110;5.548;2023-03-20T03:27:40;17.00;53.30
24744;DHT22;12844;52.110;5.548;2023-03-20T03:30:12;17.00;52.90
24744;DHT22;12844;52.110;5.548;2023-03-20T03:35:27;17.00;53.50
24744;DHT22;12844;52.110;5.548;2023-03-20T03:38:25;17.00;53.00
24744;DHT22;12844;52.110;5.548;2023-03-20T03:43:30;17.00;53.00
24744;DHT22;12844;52.110;5.548;2023-03-20T03:46:09;17.00;52.90
24744;DHT22;12844;52.110;5.548;2023-03-20T03:48:44;17.00;53.00
24744;DHT22;12844;52.110;5.548;2023-03-20T03:51:18;17.00;52.90
24744;DHT22;12844;52.110;5.548;2023-03-20T03:53:58;17.00;52.90
24744;DHT22;12844;52.110;5.548;2023-03-20T03:56:25;17.00;53.00
24744;DHT22;12844;52.110;5.548;2023-03-20T03:58:55;16.90;52.90
24744;DHT22;12844;52.110;5.548;2023-03-20T04:01:22;17.00;53.00
24744;DHT22;12844;52.110;5.548;2023-03-20T04:03:53;17.00;52.90
24744;DHT22;12844;52.110;5.548;2023-03-20T04:06:20;16.90;52.90
24744;DHT22;12844;52.110;5.548;2023-03-20T04:08:46;17.00;52.80
24744;DHT22;12844;52.110;5.548;2023-03-20T04:11:16;17.00;52.90
24744;DHT22;12844;52.110;5.548;2023-03-20T04:13:46;17.00;52.90
24744;DHT22;12844;52.110;5.548;2023-03-20T04:16:13;16.90;52.80
24744;DHT22;12844;52.110;5.548;2023-03-20T04:18:40;17.00;52.80
24744;DHT22;12844;52.110;5.548;2023-03-20T04:21:06;16.90;52.80
24744;DHT22;12844;52.110;5.548;2023-03-20T04:23:32;16.90;52.80
24744;DHT22;12844;52.110;5.548;2023-03-20T04:25:58;16.90;52.80
24744;DHT22;12844;52.110;5.548;2023-03-20T04:28:24;16.90;52.80
24744;DHT22;12844;52.110;5.548;2023-03-20T04:30:53;16.90;52.90
24744;DHT22;12844;52.110;5.548;2023-03-20T04:33:19;16.90;52.90
24744;DHT22;12844;52.110;5.548;2023-03-20T04:35:45;16.90;52.80
24744;DHT22;12844;52.110;5.548;2023-03-20T04:38:11;16.90;52.80
24744;DHT22;12844;52.110;5.548;2023-03-20T04:40:37;16.90;52.80
24744;DHT22;12844;52.110;5.548;2023-03-20T04:43:02;16.90;52.80
24744;DHT22;12844;52.110;5.548;2023-03-20T04:45:28;17.00;52.80
24744;DHT22;12844;52.110;5.548;2023-03-20T04:47:54;16.90;52.80
24744;DHT22;12844;52.110;5.548;2023-03-20T04:50:19;16.90;52.80
24744;DHT22;12844;52.110;5.548;2023-03-20T04:52:45;16.90;52.80
24744;DHT22;12844;52.110;5.548;2023-03-20T04:55:10;16.90;52.80
24744;DHT22;12844;52.110;5.548;2023-03-20T04:57:36;16.90;52.80
24744;DHT22;12844;52.110;5.548;2023-03-20T05:00:02;16.90;52.80
24744;DHT22;12844;52.110;5.548;2023-03-20T05:02:29;16.90;52.70
24744;DHT22;12844;52.110;5.548;2023-03-20T05:04:54;16.90;52.70
24744;DHT22;12844;52.110;5.548;2023-03-20T05:07:20;16.90;52.70
24744;DHT22;12844;52.110;5.548;2023-03-20T05:09:46;16.90;52.70
24744;DHT22;12844;52.110;5.548;2023-03-20T05:12:11;16.90;52.70
24744;DHT22;12844;52.110;5.548;2023-03-20T05:14:37;16.90;52.60
24744;DHT22;12844;52.110;5.548;2023-03-20T05:17:03;16.90;52.70
24744;DHT22;12844;52.110;5.548;2023-03-20T05:19:28;16.90;52.70
24744;DHT22;12844;52.110;5.548;2023-03-20T05:21:54;16.80;52.60
24744;DHT22;12844;52.110;5.548;2023-03-20T05:24:19;16.90;52.60
24744;DHT22;12844;52.110;5.548;2023-03-20T05:26:45;16.90;52.60
24744;DHT22;12844;52.110;5.548;2023-03-20T05:29:11;16.80;52.60
24744;DHT22;12844;52.110;5.548;2023-03-20T05:31:37;16.80;52.60
24744;DHT22;12844;52.110;5.548;2023-03-20T05:34:03;16.80;52.60
24744;DHT22;12844;52.110;5.548;2023-03-20T05:36:29;16.80;52.60
24744;DHT22;12844;52.110;5.548;2023-03-20T05:38:55;16.80;52.70
24744;DHT22;12844;52.110;5.548;2023-03-20T05:41:21;16.80;52.70
24744;DHT22;12844;52.110;5.548;2023-03-20T05:43:47;16.80;52.80
24744;DHT22;12844;52.110;5.548;2023-03-20T05:46:12;16.80;52.60
24744;DHT22;12844;52.110;5.548;2023-03-20T05:48:38;16.80;52.60
24744;DHT22;12844;52.110;5.548;2023-03-20T05:51:04;16.80;52.60
24744;DHT22;12844;52.110;5.548;2023-03-20T05:53:29;16.80;52.60
24744;DHT22;12844;52.110;5.548;2023-03-20T05:55:55;16.80;52.60
24744;DHT22;12844;52.110;5.548;2023-03-20T05:58:21;16.80;52.70
24744;DHT22;12844;52.110;5.548;2023-03-20T06:00:46;16.80;52.70
24744;DHT22;12844;52.110;5.548;2023-03-20T06:03:12;16.80;52.60
24744;DHT22;12844;52.110;5.548;2023-03-20T06:05:37;16.80;52.60
24744;DHT22;12844;52.110;5.548;2023-03-20T06:08:04;16.80;52.70
24744;DHT22;12844;52.110;5.548;2023-03-20T06:10:30;16.80;52.60
24744;DHT22;12844;52.110;5.548;2023-03-20T06:12:56;16.80;52.60
24744;DHT22;12844;52.110;5.548;2023-03-20T06:15:24;16.80;52.60
24744;DHT22;12844;52.110;5.548;2023-03-20T06:17:49;16.80;52.60
24744;DHT22;12844;52.110;5.548;2023-03-20T06:20:15;16.80;52.60
24744;DHT22;12844;52.110;5.548;2023-03-20T06:22:40;16.80;52.60
24744;DHT22;12844;52.110;5.548;2023-03-20T06:25:06;16.80;52.60
24744;DHT22;12844;52.110;5.548;2023-03-20T06:27:32;16.80;52.60
24744;DHT22;12844;52.110;5.548;2023-03-20T06:29:57;16.80;52.60
24744;DHT22;12844;52.110;5.548;2023-03-20T06:32:23;16.80;52.60
24744;DHT22;12844;52.110;5.548;2023-03-20T06:34:49;16.80;52.50
24744;DHT22;12844;52.110;5.548;2023-03-20T06:37:14;16.80;52.50
24744;DHT22;12844;52.110;5.548;2023-03-20T06:39:40;16.80;52.50
24744;DHT22;12844;52.110;5.548;2023-03-20T06:42:06;16.80;52.50
24744;DHT22;12844;52.110;5.548;2023-03-20T06:44:31;16.80;52.50
24744;DHT22;12844;52.110;5.548;2023-03-20T06:46:57;16.80;52.50
24744;DHT22;12844;52.110;5.548;2023-03-20T06:49:22;16.80;52.50
24744;DHT22;12844;52.110;5.548;2023-03-20T06:51:48;16.80;52.50
24744;DHT22;12844;52.110;5.548;2023-03-20T06:54:13;16.80;52.50
24744;DHT22;12844;52.110;5.548;2023-03-20T06:56:39;16.80;52.40
24744;DHT22;12844;52.110;5.548;2023-03-20T06:59:04;16.80;52.50
24744;DHT22;12844;52.110;5.548;2023-03-20T08:11:25;16.70;52.10
24744;DHT22;12844;52.110;5.548;2023-03-20T08:13:50;16.80;52.20
24744;DHT22;12844;52.110;5.548;2023-03-20T08:16:16;16.70;52.10
24744;DHT22;12844;52.110;5.548;2023-03-20T08:18:42;16.70;52.10
24744;DHT22;12844;52.110;5.548;2023-03-20T08:21:08;16.70;52.20
24744;DHT22;12844;52.110;5.548;2023-03-20T08:23:34;16.70;52.20
24744;DHT22;12844;52.110;5.548;2023-03-20T08:25:59;16.70;52.20
24744;DHT22;12844;52.110;5.548;2023-03-20T08:28:25;16.70;52.20
24744;DHT22;12844;52.110;5.548;2023-03-20T08:30:50;16.70;52.10
24744;DHT22;12844;52.110;5.548;2023-03-20T08:33:17;16.70;52.20
24744;DHT22;12844;52.110;5.548;2023-03-20T08:35:42;16.70;52.10
24744;DHT22;12844;52.110;5.548;2023-03-20T08:38:12;16.70;52.10
24744;DHT22;12844;52.110;5.548;2023-03-20T08:40:41;16.70;52.10
24744;DHT22;12844;52.110;5.548;2023-03-20T08:43:07;16.70;52.00
24744;DHT22;12844;52.110;5.548;2023-03-20T08:45:32;16.70;52.00
24744;DHT22;12844;52.110;5.548;2023-03-20T08:47:58;16.70;52.00
24744;DHT22;12844;52.110;5.548;2023-03-20T08:50:23;16.70;52.00
24744;DHT22;12844;52.110;5.548;2023-03-20T08:52:49;16.70;51.90
24744;DHT22;12844;52.110;5.548;2023-03-20T08:55:15;16.70;51.90
24744;DHT22;12844;52.110;5.548;2023-03-20T08:57:41;16.70;51.90
24744;DHT22;12844;52.110;5.548;2023-03-20T09:00:09;16.70;52.00
24744;DHT22;12844;52.110;5.548;2023-03-20T09:02:36;16.70;52.10
24744;DHT22;12844;52.110;5.548;2023-03-20T09:05:02;16.70;52.10
24744;DHT22;12844;52.110;5.548;2023-03-20T09:07:27;16.70;52.00
24744;DHT22;12844;52.110;5.548;2023-03-20T09:09:53;16.70;52.00
24744;DHT22;12844;52.110;5.548;2023-03-20T09:12:18;16.70;52.00
24744;DHT22;12844;52.110;5.548;2023-03-20T09:14:44;16.70;52.00
24744;DHT22;12844;52.110;5.548;2023-03-20T09:17:09;16.70;52.10
24744;DHT22;12844;52.110;5.548;2023-03-20T09:19:35;16.70;52.70
24744;DHT22;12844;52.110;5.548;2023-03-20T09:22:04;16.70;52.00
24744;DHT22;12844;52.110;5.548;2023-03-20T09:24:30;16.70;52.10
24744;DHT22;12844;52.110;5.548;2023-03-20T09:26:57;16.70;52.00
24744;DHT22;12844;52.110;5.548;2023-03-20T09:29:23;16.70;52.10
24744;DHT22;12844;52.110;5.548;2023-03-20T09:31:48;16.70;52.10
24744;DHT22;12844;52.110;5.548;2023-03-20T09:34:14;16.70;52.10
24744;DHT22;12844;52.110;5.548;2023-03-20T09:36:39;16.70;52.10
24744;DHT22;12844;52.110;5.548;2023-03-20T09:39:05;16.70;52.20
24744;DHT22;12844;52.110;5.548;2023-03-20T09:41:31;16.70;52.20
24744;DHT22;12844;52.110;5.548;2023-03-20T09:46:47;16.70;52.50
24744;DHT22;12844;52.110;5.548;2023-03-20T09:51:47;16.70;52.50
24744;DHT22;12844;52.110;5.548;2023-03-20T09:54:29;16.70;52.50
24744;DHT22;12844;52.110;5.548;2023-03-20T09:57:00;16.60;52.40
24744;DHT22;12844;52.110;5.548;2023-03-20T09:59:28;16.60;53.10
24744;DHT22;12844;52.110;5.548;2023-03-20T10:02:14;16.70;52.50
24744;DHT22;12844;52.110;5.548;2023-03-20T10:04:46;16.70;52.60
24744;DHT22;12844;52.110;5.548;2023-03-20T10:07:14;16.60;52.50
24744;DHT22;12844;52.110;5.548;2023-03-20T10:09:42;16.70;52.50
24744;DHT22;12844;52.110;5.548;2023-03-20T10:14:49;16.70;52.50
24744;DHT22;12844;52.110;5.548;2023-03-20T10:22:50;16.70;52.60
24744;DHT22;12844;52.110;5.548;2023-03-20T10:25:25;16.70;52.60
24744;DHT22;12844;52.110;5.548;2023-03-20T10:35:43;16.70;52.50
24744;DHT22;12844;52.110;5.548;2023-03-20T10:38:30;16.70;52.50
24744;DHT22;12844;52.110;5.548;2023-03-20T10:40:58;16.70;52.60
24744;DHT22;12844;52.110;5.548;2023-03-20T10:43:31;16.70;52.50
24744;DHT22;12844;52.110;5.548;2023-03-20T10:46:02;16.70;52.50
24744;DHT22;12844;52.110;5.548;2023-03-20T10:48:38;16.70;52.50
24744;DHT22;12844;52.110;5.548;2023-03-20T10:51:11;16.70;52.50
24744;DHT22;12844;52.110;5.548;2023-03-20T10:53:51;16.70;52.50
24744;DHT22;12844;52.110;5.548;2023-03-20T10:56:41;16.70;52.50
24744;DHT22;12844;52.110;5.548;2023-03-20T10:59:21;16.70;52.50
24744;DHT22;12844;52.110;5.548;2023-03-20T11:01:47;16.70;52.60
24744;DHT22;12844;52.110;5.548;2023-03-20T11:04:12;16.70;52.50
24744;DHT22;12844;52.110;5.548;2023-03-20T11:06:45;16.70;52.50
24744;DHT22;12844;52.110;5.548;2023-03-20T11:09:19;16.70;52.50
24744;DHT22;12844;52.110;5.548;2023-03-20T11:11:47;16.70;52.50
24744;DHT22;12844;52.110;5.548;2023-03-20T11:14:21;16.70;52.60
24744;DHT22;12844;52.110;5.548;2023-03-20T11:16:50;16.70;52.50
24744;DHT22;12844;52.110;5.548;2023-03-20T11:19:19;16.70;52.50
24744;DHT22;12844;52.110;5.548;2023-03-20T11:21:51;16.70;52.50
24744;DHT22;12844;52.110;5.548;2023-03-20T11:24:36;16.70;52.50
24744;DHT22;12844;52.110;5.548;2023-03-20T11:27:06;16.70;52.50
24744;DHT22;12844;52.110;5.548;2023-03-20T11:29:32;16.70;52.50
24744;DHT22;12844;52.110;5.548;2023-03-20T11:32:32;16.70;52.50
24744;DHT22;12844;52.110;5.548;2023-03-20T11:37:49;16.70;52.50
24744;DHT22;12844;52.110;5.548;2023-03-20T11:40:30;16.70;52.50
24744;DHT22;12844;52.110;5.548;2023-03-20T11:43:03;16.70;52.50
24744;DHT22;12844;52.110;5.548;2023-03-20T11:45:36;16.80;52.40
24744;DHT22;12844;52.110;5.548;2023-03-20T11:48:03;16.80;52.30
24744;DHT22;12844;52.110;5.548;2023-03-20T11:50:42;16.80;52.80
24744;DHT22;12844;52.110;5.548;2023-03-20T11:53:35;16.80;53.20
24744;DHT22;12844;52.110;5.548;2023-03-20T11:56:10;16.90;53.50
24744;DHT22;12844;52.110;5.548;2023-03-20T12:06:52;17.70;54.00
24744;DHT22;12844;52.110;5.548;2023-03-20T12:09:30;17.90;53.80
24744;DHT22;12844;52.110;5.548;2023-03-20T12:17:24;18.30;53.70
24744;DHT22;12844;52.110;5.548;2023-03-20T12:19:53;18.30;53.60
24744;DHT22;12844;52.110;5.548;2023-03-20T12:22:24;18.40;53.40
24744;DHT22;12844;52.110;5.548;2023-03-20T12:25:03;18.50;53.30
24744;DHT22;12844;52.110;5.548;2023-03-20T12:27:36;18.60;53.20
24744;DHT22;12844;52.110;5.548;2023-03-20T12:33:18;18.80;52.90
24744;DHT22;12844;52.110;5.548;2023-03-20T12:35:48;18.80;52.70
24744;DHT22;12844;52.110;5.548;2023-03-20T12:38:23;18.90;52.70
24744;DHT22;12844;52.110;5.548;2023-03-20T12:41:13;19.00;52.80
24744;DHT22;12844;52.110;5.548;2023-03-20T12:49:32;19.00;52.50
24744;DHT22;12844;52.110;5.548;2023-03-20T12:52:27;19.00;52.50
24744;DHT22;12844;52.110;5.548;2023-03-20T12:57:33;19.00;52.60
24744;DHT22;12844;52.110;5.548;2023-03-20T13:10:20;19.00;52.70
24744;DHT22;12844;52.110;5.548;2023-03-20T13:24:32;18.30;53.60
24744;DHT22;12844;52.110;5.548;2023-03-20T13:29:51;18.00;55.30
24744;DHT22;12844;52.110;5.548;2023-03-20T13:35:35;18.50;54.20
24744;DHT22;12844;52.110;5.548;2023-03-20T13:38:15;18.60;53.80
24744;DHT22;12844;52.110;5.548;2023-03-20T13:40:42;18.60;53.60
24744;DHT22;12844;52.110;5.548;2023-03-20T13:46:37;18.70;53.50
24744;DHT22;12844;52.110;5.548;2023-03-20T13:49:12;18.70;53.50
24744;DHT22;12844;52.110;5.548;2023-03-20T13:51:43;18.70;53.50
24744;DHT22;12844;52.110;5.548;2023-03-20T13:57:09;18.70;53.60
24744;DHT22;12844;52.110;5.548;2023-03-20T13:59:57;18.70;53.60
24744;DHT22;12844;52.110;5.548;2023-03-20T14:05:40;18.60;53.60
24744;DHT22;12844;52.110;5.548;2023-03-20T14:11:14;18.70;53.70
24744;DHT22;12844;52.110;5.548;2023-03-20T14:13:56;18.60;53.70
24744;DHT22;12844;52.110;5.548;2023-03-20T14:16:26;18.60;53.70
24744;DHT22;12844;52.110;5.548;2023-03-20T14:19:07;18.60;53.80
24744;DHT22;12844;52.110;5.548;2023-03-20T14:21:34;18.60;53.80
24744;DHT22;12844;52.110;5.548;2023-03-20T14:24:03;18.60;53.80
24744;DHT22;12844;52.110;5.548;2023-03-20T14:26:34;18.60;53.80
24744;DHT22;12844;52.110;5.548;2023-03-20T14:29:20;18.60;53.80
24744;DHT22;12844;52.110;5.548;2023-03-20T14:31:49;18.60;53.70
24744;DHT22;12844;52.110;5.548;2023-03-20T14:34:20;18.60;53.80
24744;DHT22;12844;52.110;5.548;2023-03-20T14:39:44;18.60;53.90
24744;DHT22;12844;52.110;5.548;2023-03-20T14:42:25;18.60;53.80
24744;DHT22;12844;52.110;5.548;2023-03-20T14:45:24;18.60;53.80
24744;DHT22;12844;52.110;5.548;2023-03-20T14:53:03;18.50;53.90
24744;DHT22;12844;52.110;5.548;2023-03-20T14:56:07;18.40;53.80
24744;DHT22;12844;52.110;5.548;2023-03-20T14:58:39;18.50;53.80
24744;DHT22;12844;52.110;5.548;2023-03-20T15:01:16;18.50;53.70
24744;DHT22;12844;52.110;5.548;2023-03-20T15:03:48;18.50;53.70
24744;DHT22;12844;52.110;5.548;2023-03-20T15:06:18;18.40;53.70
24744;DHT22;12844;52.110;5.548;2023-03-20T15:08:50;18.40;53.70
24744;DHT22;12844;52.110;5.548;2023-03-20T15:11:17;18.40;53.70
24744;DHT22;12844;52.110;5.548;2023-03-20T15:13:44;18.50;53.60
24744;DHT22;12844;52.110;5.548;2023-03-20T15:16:14;18.50;53.60
24744;DHT22;12844;52.110;5.548;2023-03-20T15:18:50;18.50;53.50
24744;DHT22;12844;52.110;5.548;2023-03-20T15:21:35;18.60;53.50
24744;DHT22;12844;52.110;5.548;2023-03-20T15:24:01;18.50;53.60
24744;DHT22;12844;52.110;5.548;2023-03-20T15:26:28;18.50;53.70
24744;DHT22;12844;52.110;5.548;2023-03-20T15:29:06;18.50;53.60
24744;DHT22;12844;52.110;5.548;2023-03-20T15:31:34;18.60;53.60
24744;DHT22;12844;52.110;5.548;2023-03-20T15:34:05;18.50;53.70
24744;DHT22;12844;52.110;5.548;2023-03-20T15:36:34;18.50;53.70
24744;DHT22;12844;52.110;5.548;2023-03-20T15:39:17;18.50;53.70
24744;DHT22;12844;52.110;5.548;2023-03-20T15:41:50;18.50;53.70
24744;DHT22;12844;52.110;5.548;2023-03-20T15:44:25;18.50;53.70
24744;DHT22;12844;52.110;5.548;2023-03-20T15:47:12;18.50;53.70
24744;DHT22;12844;52.110;5.548;2023-03-20T15:49:39;18.50;53.70
24744;DHT22;12844;52.110;5.548;2023-03-20T15:52:31;18.60;53.70
24744;DHT22;12844;52.110;5.548;2023-03-20T15:54:59;18.60;53.60
24744;DHT22;12844;52.110;5.548;2023-03-20T15:57:35;18.60;53.80
24744;DHT22;12844;52.110;5.548;2023-03-20T16:00:08;18.60;53.80
24744;DHT22;12844;52.110;5.548;2023-03-20T16:02:37;18.60;53.70
24744;DHT22;12844;52.110;5.548;2023-03-20T16:05:03;18.60;53.70
24744;DHT22;12844;52.110;5.548;2023-03-20T16:07:31;18.60;53.80
24744;DHT22;12844;52.110;5.548;2023-03-20T16:10:00;18.60;53.80
24744;DHT22;12844;52.110;5.548;2023-03-20T16:12:26;18.60;53.90
24744;DHT22;12844;52.110;5.548;2023-03-20T16:14:52;18.60;54.00
24744;DHT22;12844;52.110;5.548;2023-03-20T16:17:20;18.60;54.00
24744;DHT22;12844;52.110;5.548;2023-03-20T16:19:47;18.60;54.00
24744;DHT22;12844;52.110;5.548;2023-03-20T16:24:48;18.70;54.10
24744;DHT22;12844;52.110;5.548;2023-03-20T16:27:22;18.60;54.10
24744;DHT22;12844;52.110;5.548;2023-03-20T16:29:50;18.70;54.10
24744;DHT22;12844;52.110;5.548;2023-03-20T16:32:36;18.70;54.10
24744;DHT22;12844;52.110;5.548;2023-03-20T16:35:20;18.70;54.10
24744;DHT22;12844;52.110;5.548;2023-03-20T16:37:57;18.70;54.10
24744;DHT22;12844;52.110;5.548;2023-03-20T16:40:35;18.70;54.20
24744;DHT22;12844;52.110;5.548;2023-03-20T16:43:19;18.60;54.30
24744;DHT22;12844;52.110;5.548;2023-03-20T16:45:51;18.70;54.30
24744;DHT22;12844;52.110;5.548;2023-03-20T16:48:29;18.60;54.30
24744;DHT22;12844;52.110;5.548;2023-03-20T16:51:06;18.70;54.30
24744;DHT22;12844;52.110;5.548;2023-03-20T16:53:41;18.60;54.40
24744;DHT22;12844;52.110;5.548;2023-03-20T16:56:15;18.60;54.50
24744;DHT22;12844;52.110;5.548;2023-03-20T16:58:41;18.70;54.50
24744;DHT22;12844;52.110;5.548;2023-03-20T17:01:17;18.70;54.60
24744;DHT22;12844;52.110;5.548;2023-03-20T17:03:44;18.70;54.60
24744;DHT22;12844;52.110;5.548;2023-03-20T17:11:15;18.70;54.60
24744;DHT22;12844;52.110;5.548;2023-03-20T17:13:45;18.60;54.60
24744;DHT22;12844;52.110;5.548;2023-03-20T17:16:16;18.60;54.70
24744;DHT22;12844;52.110;5.548;2023-03-20T17:18:47;18.70;54.70
24744;DHT22;12844;52.110;5.548;2023-03-20T17:21:22;18.70;54.70
24744;DHT22;12844;52.110;5.548;2023-03-20T17:23:47;18.60;54.70
24744;DHT22;12844;52.110;5.548;2023-03-20T17:26:13;18.70;54.70
24744;DHT22;12844;52.110;5.548;2023-03-20T17:28:38;18.70;54.70
24744;DHT22;12844;52.110;5.548;2023-03-20T17:31:04;18.70;54.80
24744;DHT22;12844;52.110;5.548;2023-03-20T17:33:31;18.70;54.70
24744;DHT22;12844;52.110;5.548;2023-03-20T17:35:58;18.70;54.70
24744;DHT22;12844;52.110;5.548;2023-03-20T17:38:25;18.70;54.70
24744;DHT22;12844;52.110;5.548;2023-03-20T17:40:51;18.70;54.60
24744;DHT22;12844;52.110;5.548;2023-03-20T17:43:17;18.70;54.60
24744;DHT22;12844;52.110;5.548;2023-03-20T17:45:44;18.70;54.60
24744;DHT22;12844;52.110;5.548;2023-03-20T17:48:15;18.70;54.50
24744;DHT22;12844;52.110;5.548;2023-03-20T17:50:43;18.70;54.50
24744;DHT22;12844;52.110;5.548;2023-03-20T17:55:42;18.70;54.50
24744;DHT22;12844;52.110;5.548;2023-03-20T17:58:13;18.70;54.50
24744;DHT22;12844;52.110;5.548;2023-03-20T18:00:38;18.70;54.50
24744;DHT22;12844;52.110;5.548;2023-03-20T18:03:04;18.70;54.30
24744;DHT22;12844;52.110;5.548;2023-03-20T18:05:30;18.70;54.20
24744;DHT22;12844;52.110;5.548;2023-03-20T18:07:57;18.80;54.40
24744;DHT22;12844;52.110;5.548;2023-03-20T18:10:27;18.80;54.50
24744;DHT22;12844;52.110;5.548;2023-03-20T18:12:53;18.80;54.40
24744;DHT22;12844;52.110;5.548;2023-03-20T18:15:18;18.80;54.40
24744;DHT22;12844;52.110;5.548;2023-03-20T18:17:44;18.80;54.50
24744;DHT22;12844;52.110;5.548;2023-03-20T18:20:30;18.80;54.40
24744;DHT22;12844;52.110;5.548;2023-03-20T18:22:56;18.80;54.50
24744;DHT22;12844;52.110;5.548;2023-03-20T18:25:23;18.80;54.50
24744;DHT22;12844;52.110;5.548;2023-03-20T18:27:51;18.80;54.60
24744;DHT22;12844;52.110;5.548;2023-03-20T18:30:20;18.80;54.60
24744;DHT22;12844;52.110;5.548;2023-03-20T18:32:46;18.80;54.50
24744;DHT22;12844;52.110;5.548;2023-03-20T18:35:12;18.80;54.60
24744;DHT22;12844;52.110;5.548;2023-03-20T18:37:39;18.80;54.60
24744;DHT22;12844;52.110;5.548;2023-03-20T18:40:15;18.80;54.60
24744;DHT22;12844;52.110;5.548;2023-03-20T18:42:42;18.80;54.60
24744;DHT22;12844;52.110;5.548;2023-03-20T18:45:08;18.80;54.70
24744;DHT22;12844;52.110;5.548;2023-03-20T18:47:34;18.80;54.70
24744;DHT22;12844;52.110;5.548;2023-03-20T18:49:59;18.80;54.60
24744;DHT22;12844;52.110;5.548;2023-03-20T18:52:25;18.80;54.70
24744;DHT22;12844;52.110;5.548;2023-03-20T18:54:51;18.80;54.70
24744;DHT22;12844;52.110;5.548;2023-03-20T18:57:16;18.80;54.70
24744;DHT22;12844;52.110;5.548;2023-03-20T18:59:42;18.80;54.80
24744;DHT22;12844;52.110;5.548;2023-03-20T19:02:08;18.80;54.80
24744;DHT22;12844;52.110;5.548;2023-03-20T19:04:33;18.90;54.80
24744;DHT22;12844;52.110;5.548;2023-03-20T19:07:00;18.80;54.80
24744;DHT22;12844;52.110;5.548;2023-03-20T19:09:26;18.90;54.90
24744;DHT22;12844;52.110;5.548;2023-03-20T19:11:51;18.90;54.90
24744;DHT22;12844;52.110;5.548;2023-03-20T19:14:17;18.90;54.90
24744;DHT22;12844;52.110;5.548;2023-03-20T19:16:43;18.90;55.00
24744;DHT22;12844;52.110;5.548;2023-03-20T19:19:12;18.80;54.90
24744;DHT22;12844;52.110;5.548;2023-03-20T19:21:38;18.90;54.90
24744;DHT22;12844;52.110;5.548;2023-03-20T19:24:05;18.90;54.90
24744;DHT22;12844;52.110;5.548;2023-03-20T19:26:32;18.90;55.00
24744;DHT22;12844;52.110;5.548;2023-03-20T19:28:59;18.90;55.00
24744;DHT22;12844;52.110;5.548;2023-03-20T19:31:25;18.90;54.90
24744;DHT22;12844;52.110;5.548;2023-03-20T19:33:52;18.90;55.00
24744;DHT22;12844;52.110;5.548;2023-03-20T19:36:31;18.90;55.10